WARNING - Change wsUserSettings.php: $SITE["topfolder"] from : public_html./ to: ./
Iedere zaterdag na 11 uur op radio zuidwest.

Onweer radar Meer informatie blitzortung!


Regen radar Meer informatie rain snow radar


Bezoek onze andere website:

Template documentation
and downloads


U vindt ons ook hier:

Het Weer Aktueel

UK Metoffice

European Weather Network

WeatherCloud

Weather Underground

Austria Weather Network

AWEKAS

Citizen Weather Observer Program (CWOP)

HAMweather, WeatherForYou, PWS Weather

Wetterpage 24

Roosendaal nieuws

VWKWEB

RadioZuidWestFM



METAR rapporten vliegvelden

   
EHWO - Bergen op Zoom
Gewijzigd: 30-01-2023 00:00
Nevel, Bewolking  
Nevel, Bewolking  
   Wind: ZW 18.5 km/h
Wind: ZW 18.5 km/h
Temperatuur: 5°C
Voelt als: 1°C
Dauwpunt: 4°C
Vochtigheid: 93%
Barometer: 1020 hPa
Bewolking: Bewolking
Zicht: 7 km
Bewolking: Grotendeels bewolkt 600 ft,
Grotendeels bewolkt 700 ft,
Bewolking 900 ft
EHWO 292300Z AUTO 22010KT 190V260 7000 BR BKN006 BKN007 OVC009 05/04 Q1020 YLO
EHWO - Woensdrecht
Gewijzigd: 30-01-2023 00:00
Nevel, Bewolking  
Nevel, Bewolking  
   Wind: ZW 18.5 km/h
Wind: ZW 18.5 km/h
Temperatuur: 5°C
Voelt als: 1°C
Dauwpunt: 4°C
Vochtigheid: 93%
Barometer: 1020 hPa
Bewolking: Bewolking
Zicht: 7 km
Bewolking: Grotendeels bewolkt 600 ft,
Grotendeels bewolkt 700 ft,
Bewolking 900 ft
EHWO 292300Z AUTO 22010KT 190V260 7000 BR BKN006 BKN007 OVC009 05/04 Q1020 YLO
EHWO - Steenbergen
Gewijzigd: 30-01-2023 00:00
Nevel, Bewolking  
Nevel, Bewolking  
   Wind: ZW 18.5 km/h
Wind: ZW 18.5 km/h
Temperatuur: 5°C
Voelt als: 1°C
Dauwpunt: 4°C
Vochtigheid: 93%
Barometer: 1020 hPa
Bewolking: Bewolking
Zicht: 7 km
Bewolking: Grotendeels bewolkt 600 ft,
Grotendeels bewolkt 700 ft,
Bewolking 900 ft
EHWO 292300Z AUTO 22010KT 190V260 7000 BR BKN006 BKN007 OVC009 05/04 Q1020 YLO
EHWO - Oud-Gastel
Gewijzigd: 30-01-2023 00:00
Nevel, Bewolking  
Nevel, Bewolking  
   Wind: ZW 18.5 km/h
Wind: ZW 18.5 km/h
Temperatuur: 5°C
Voelt als: 1°C
Dauwpunt: 4°C
Vochtigheid: 93%
Barometer: 1020 hPa
Bewolking: Bewolking
Zicht: 7 km
Bewolking: Grotendeels bewolkt 600 ft,
Grotendeels bewolkt 700 ft,
Bewolking 900 ft
EHWO 292300Z AUTO 22010KT 190V260 7000 BR BKN006 BKN007 OVC009 05/04 Q1020 YLO
EHWO - Oudenbosch
Gewijzigd: 30-01-2023 00:00
Nevel, Bewolking  
Nevel, Bewolking  
   Wind: ZW 18.5 km/h
Wind: ZW 18.5 km/h
Temperatuur: 5°C
Voelt als: 1°C
Dauwpunt: 4°C
Vochtigheid: 93%
Barometer: 1020 hPa
Bewolking: Bewolking
Zicht: 7 km
Bewolking: Grotendeels bewolkt 600 ft,
Grotendeels bewolkt 700 ft,
Bewolking 900 ft
EHWO 292300Z AUTO 22010KT 190V260 7000 BR BKN006 BKN007 OVC009 05/04 Q1020 YLO
EHWO - Rucphen
Gewijzigd: 30-01-2023 00:00
Nevel, Bewolking  
Nevel, Bewolking  
   Wind: ZW 18.5 km/h
Wind: ZW 18.5 km/h
Temperatuur: 5°C
Voelt als: 1°C
Dauwpunt: 4°C
Vochtigheid: 93%
Barometer: 1020 hPa
Bewolking: Bewolking
Zicht: 7 km
Bewolking: Grotendeels bewolkt 600 ft,
Grotendeels bewolkt 700 ft,
Bewolking 900 ft
EHWO 292300Z AUTO 22010KT 190V260 7000 BR BKN006 BKN007 OVC009 05/04 Q1020 YLO
EHWO - Bergen op Zoom
Gewijzigd: 30-01-2023 00:00
Nevel, Bewolking  
Nevel, Bewolking  
   Wind: ZW 18.5 km/h
Wind: ZW 18.5 km/h
Temperatuur: 5°C
Voelt als: 1°C
Dauwpunt: 4°C
Vochtigheid: 93%
Barometer: 1020 hPa
Bewolking: Bewolking
Zicht: 7 km
Bewolking: Grotendeels bewolkt 600 ft,
Grotendeels bewolkt 700 ft,
Bewolking 900 ft
EHWO 292300Z AUTO 22010KT 190V260 7000 BR BKN006 BKN007 OVC009 05/04 Q1020 YLO
EHWO - Fijnaart
Gewijzigd: 30-01-2023 00:00
Nevel, Bewolking  
Nevel, Bewolking  
   Wind: ZW 18.5 km/h
Wind: ZW 18.5 km/h
Temperatuur: 5°C
Voelt als: 1°C
Dauwpunt: 4°C
Vochtigheid: 93%
Barometer: 1020 hPa
Bewolking: Bewolking
Zicht: 7 km
Bewolking: Grotendeels bewolkt 600 ft,
Grotendeels bewolkt 700 ft,
Bewolking 900 ft
EHWO 292300Z AUTO 22010KT 190V260 7000 BR BKN006 BKN007 OVC009 05/04 Q1020 YLO
EHWO - Ossendrecht
Gewijzigd: 30-01-2023 00:00
Nevel, Bewolking  
Nevel, Bewolking  
   Wind: ZW 18.5 km/h
Wind: ZW 18.5 km/h
Temperatuur: 5°C
Voelt als: 1°C
Dauwpunt: 4°C
Vochtigheid: 93%
Barometer: 1020 hPa
Bewolking: Bewolking
Zicht: 7 km
Bewolking: Grotendeels bewolkt 600 ft,
Grotendeels bewolkt 700 ft,
Bewolking 900 ft
EHWO 292300Z AUTO 22010KT 190V260 7000 BR BKN006 BKN007 OVC009 05/04 Q1020 YLO

Script ontwikkeld door  Saratoga-weather.org Aangepast voor de template door  Weerstation Leuven

Apparatuur in gebruik:

Weerstation
Davis VP2

Weerprogramma
Weather Display

Weercomputer
Shuttle

Webleverancier
WeservIT

Davis VP2

Weather Display

Shuttle

WeservIT